Time;durP1;ratioP1;P1;durP2;ratioP2;P2;SDS_P1;SDS_P2;PMS_P1;PMS_P2;Temp;Humidity;BMP_temperature;BMP_pressure;BME280_temperature;BME280_humidity;BME280_pressure;Samples;Min_cycle;Max_cycle;Signal;HPM_P1;HPM_P2
2021/04/29 00:00:27;;;;;;;13.00;9.17;;;;;;;7.46;58.42;99825.31;21041978;28;20214;-63
2021/04/29 00:20:24;;;;;;;9.53;7.73;;;;;;;7.23;60.03;99812.53;20875342;27;20572;-63
2021/04/29 00:30:25;;;;;;;9.43;7.30;;;;;;;7.07;60.89;99796.66;20861054;28;20227;-62
2021/04/29 00:40:26;;;;;;;10.63;7.23;;;;;;;7.03;61.86;99800.41;20870057;28;20266;-61
2021/04/29 00:50:26;;;;;;;12.87;8.77;;;;;;;6.98;62.13;99791.03;20851339;28;20215;-62
2021/04/29 01:00:27;;;;;;;12.00;8.30;;;;;;;6.82;62.74;99776.00;20870861;28;20465;-62
2021/04/29 01:20:33;;;;;;;11.30;8.23;;;;;;;6.79;63.79;99781.47;21045451;27;20545;-62
2021/04/29 01:40:29;;;;;;;13.30;9.37;;;;;;;6.59;64.76;99768.50;20934023;27;932214;-62
2021/04/29 01:50:29;;;;;;;14.68;11.05;;;;;;;6.56;65.70;99773.97;20944995;28;20225;-66
2021/04/29 02:10:26;;;;;;;16.93;10.40;;;;;;;6.54;66.88;99772.34;20799638;28;20574;-64
2021/04/29 02:20:27;;;;;;;13.87;10.17;;;;;;;6.42;68.00;99760.63;20773176;28;20224;-62
2021/04/29 02:40:25;;;;;;;12.23;9.47;;;;;;;6.12;70.30;99763.22;20945540;27;20567;-70
2021/04/29 03:10:21;;;;;;;12.83;10.50;;;;;;;5.94;72.66;99746.53;20880696;27;20605;-68
2021/04/29 03:20:21;;;;;;;13.77;10.73;;;;;;;6.00;74.11;99740.06;20863974;28;20234;-66
2021/04/29 03:30:22;;;;;;;17.63;12.50;;;;;;;6.19;74.74;99739.88;20861269;28;20220;-63
2021/04/29 03:40:22;;;;;;;18.40;10.70;;;;;;;6.52;74.93;99750.41;20867946;28;20223;-63
2021/04/29 04:00:25;;;;;;;14.70;11.90;;;;;;;7.09;73.83;99735.56;21035775;27;829633;-69
2021/04/29 04:10:25;;;;;;;16.37;13.00;;;;;;;7.34;73.02;99742.91;21018162;28;20714;-65
2021/04/29 04:20:25;;;;;;;18.47;14.70;;;;;;;7.62;73.22;99756.19;21037101;28;20456;-69
2021/04/29 04:30:27;;;;;;;17.07;13.13;;;;;;;7.96;73.13;99747.03;21020179;28;20223;-63
2021/04/29 04:40:27;;;;;;;16.90;12.67;;;;;;;8.39;71.43;99742.50;21033646;28;20226;-62
2021/04/29 05:00:23;;;;;;;17.57;12.33;;;;;;;9.00;70.24;99742.00;21040635;27;20579;-63
2021/04/29 05:10:23;;;;;;;14.17;11.37;;;;;;;9.23;69.79;99723.59;21051608;28;20230;-65
2021/04/29 05:20:24;;;;;;;14.30;11.60;;;;;;;9.58;69.94;99718.50;21053632;28;20225;-63
2021/04/29 05:30:25;;;;;;;14.23;10.87;;;;;;;9.84;69.34;99709.53;20971179;28;20225;-67
2021/04/29 05:40:25;;;;;;;14.00;12.03;;;;;;;10.21;67.68;99715.78;21011624;28;20229;-66
2021/04/29 05:50:26;;;;;;;15.17;12.47;;;;;;;10.49;67.01;99705.78;21038572;28;20456;-66
2021/04/29 06:00:27;;;;;;;16.05;12.68;;;;;;;10.83;66.83;99683.63;21042908;28;20221;-67
2021/04/29 06:20:24;;;;;;;15.87;13.03;;;;;;;11.37;66.17;99699.03;20894984;27;20635;-67
2021/04/29 06:30:25;;;;;;;14.53;12.97;;;;;;;11.81;65.73;99683.09;20859840;28;20639;-67
2021/04/29 06:40:27;;;;;;;19.07;13.37;;;;;;;12.12;64.38;99670.78;20823418;28;20223;-67
2021/04/29 06:50:28;;;;;;;16.90;13.13;;;;;;;12.60;62.65;99692.69;20802559;28;20474;-67
2021/04/29 07:00:28;;;;;;;16.80;13.53;;;;;;;12.98;61.87;99692.16;20802395;28;20297;-68
2021/04/29 07:10:29;;;;;;;17.30;12.73;;;;;;;13.52;61.66;99690.31;20803328;28;20216;-68
2021/04/29 07:20:29;;;;;;;14.75;12.75;;;;;;;13.89;61.37;99694.13;20792424;28;20215;-67
2021/04/29 07:30:31;;;;;;;19.27;14.27;;;;;;;14.35;58.84;99679.34;20737766;28;20227;-69
2021/04/29 07:40:32;;;;;;;18.00;13.33;;;;;;;14.16;59.58;99650.59;20729287;28;20235;-69
2021/04/29 07:50:33;;;;;;;15.20;12.77;;;;;;;14.49;58.44;99660.16;20748429;28;20823;-69
2021/04/29 08:00:34;;;;;;;14.37;12.87;;;;;;;14.54;59.19;99641.78;20728852;28;20242;-70
2021/04/29 08:10:35;;;;;;;16.00;13.07;;;;;;;14.57;57.55;99622.72;20768355;28;20224;-69
2021/04/29 08:20:37;;;;;;;16.33;12.63;;;;;;;14.74;56.93;99637.25;20736832;28;20299;-70
2021/04/29 08:30:37;;;;;;;13.90;11.33;;;;;;;15.66;56.71;99637.56;20737273;28;20700;-68
2021/04/29 08:40:38;;;;;;;17.20;12.00;;;;;;;15.79;55.40;99605.78;20739856;28;20231;-69
2021/04/29 08:50:38;;;;;;;13.57;12.18;;;;;;;16.19;54.95;99606.25;20725891;28;20239;-69
2021/04/29 09:00:40;;;;;;;14.20;11.70;;;;;;;16.52;53.40;99606.59;20738622;28;20236;-69
2021/04/29 09:10:42;;;;;;;12.73;11.43;;;;;;;16.60;54.80;99603.97;20725693;28;21332;-68
2021/04/29 09:20:50;;;;;;;12.33;10.93;;;;;;;16.69;53.41;99600.38;20765655;28;20224;-69
2021/04/29 09:30:59;;;;;;;11.37;9.97;;;;;;;17.48;51.52;99581.41;20726253;28;20232;-68
2021/04/29 09:41:00;;;;;;;10.17;8.13;;;;;;;18.61;50.90;99582.78;20737390;28;20232;-66
2021/04/29 09:51:01;;;;;;;11.43;10.27;;;;;;;18.69;47.29;99572.84;20727410;28;20828;-65
2021/04/29 10:01:01;;;;;;;10.53;9.13;;;;;;;19.16;48.49;99545.09;20732764;28;20226;-68
2021/04/29 10:11:03;;;;;;;9.93;8.43;;;;;;;19.97;47.38;99549.38;20731854;28;20500;-68
2021/04/29 10:21:05;;;;;;;8.87;7.90;;;;;;;20.88;46.27;99521.47;20723496;28;20728;-65
2021/04/29 10:31:19;;;;;;;11.00;9.10;;;;;;;21.31;40.57;99533.44;20734028;28;20224;-65
2021/04/29 10:41:26;;;;;;;9.50;7.50;;;;;;;22.33;43.22;99531.63;20713350;28;22550;-66
2021/04/29 10:51:37;;;;;;;10.87;7.80;;;;;;;22.55;41.21;99517.81;20734976;28;20227;-65
2021/04/29 11:01:45;;;;;;;8.73;7.57;;;;;;;22.83;42.29;99500.72;20743162;28;20277;-63
2021/04/29 11:11:46;;;;;;;8.57;7.77;;;;;;;22.31;42.55;99488.31;20751547;28;20766;-67
2021/04/29 11:21:46;;;;;;;6.03;5.43;;;;;;;21.89;45.00;99473.63;20717277;28;20239;-67
2021/04/29 11:31:48;;;;;;;6.80;6.10;;;;;;;21.93;44.01;99469.50;20742576;28;20235;-68
2021/04/29 11:41:48;;;;;;;6.90;6.20;;;;;;;21.59;44.41;99447.59;20736117;28;20338;-68
2021/04/29 11:51:51;;;;;;;6.17;5.57;;;;;;;21.90;45.15;99450.00;20742044;28;20238;-69
2021/04/29 12:01:56;;;;;;;4.10;3.70;;;;;;;23.06;41.99;99459.66;20751504;28;20367;-68
2021/04/29 12:12:18;;;;;;;4.87;3.17;;;;;;;24.25;37.38;99447.38;20726577;28;20855;-69
2021/04/29 12:22:21;;;;;;;2.97;2.67;;;;;;;25.04;39.32;99444.66;20742164;28;20314;-66
2021/04/29 12:32:33;;;;;;;3.30;2.90;;;;;;;24.80;34.27;99437.09;20761826;28;20868;-67
2021/04/29 12:42:33;;;;;;;3.67;3.37;;;;;;;24.32;40.23;99415.50;20806444;28;20750;-67
2021/04/29 12:52:49;;;;;;;3.50;3.20;;;;;;;24.21;34.84;99405.19;20775711;28;20228;-67
2021/04/29 13:03:00;;;;;;;6.50;3.30;;;;;;;24.14;35.77;99382.53;20738434;28;20234;-67
2021/04/29 13:13:01;;;;;;;5.23;3.50;;;;;;;24.63;38.15;99360.31;20731105;28;20220;-67
2021/04/29 13:23:02;;;;;;;3.70;2.90;;;;;;;24.69;40.87;99359.44;20723304;28;20722;-67
2021/04/29 13:33:02;;;;;;;3.63;3.33;;;;;;;24.51;40.34;99341.03;20752341;28;20226;-68
2021/04/29 13:43:05;;;;;;;3.80;3.50;;;;;;;24.02;41.09;99330.53;20730368;28;20891;-66
2021/04/29 13:53:06;;;;;;;6.10;3.90;;;;;;;24.02;40.86;99322.38;20743483;28;20570;-66
2021/04/29 14:03:06;;;;;;;3.60;3.17;;;;;;;23.80;41.10;99304.50;20733187;28;20223;-66
2021/04/29 14:13:07;;;;;;;4.57;4.10;;;;;;;23.54;41.67;99319.81;20758276;28;20255;-65
2021/04/29 14:23:07;;;;;;;4.13;3.73;;;;;;;23.61;41.26;99308.91;20723442;28;20727;-67
2021/04/29 14:33:08;;;;;;;5.43;3.80;;;;;;;23.19;41.27;99291.78;20742256;28;20246;-66
2021/04/29 14:43:09;;;;;;;3.33;3.03;;;;;;;22.96;42.22;99283.13;20737393;28;20289;-66
2021/04/29 14:53:09;;;;;;;3.57;3.27;;;;;;;22.60;42.70;99270.59;20749840;28;20327;-68
2021/04/29 15:03:11;;;;;;;4.40;3.37;;;;;;;22.42;43.32;99273.03;20759096;28;20244;-64
2021/04/29 15:13:13;;;;;;;3.43;3.03;;;;;;;22.74;44.28;99268.78;20743613;28;20228;-68
2021/04/29 15:23:14;;;;;;;5.03;3.67;;;;;;;22.45;43.92;99233.72;20754674;28;20240;-71
2021/04/29 15:33:14;;;;;;;5.67;4.27;;;;;;;22.33;44.86;99257.91;20735798;28;20244;-69
2021/04/29 15:43:15;;;;;;;5.53;3.97;;;;;;;22.14;46.07;99253.19;20740019;28;20236;-66
2021/04/29 15:53:15;;;;;;;7.43;4.00;;;;;;;21.71;46.53;99242.38;20723712;28;20239;-68
2021/04/29 16:03:16;;;;;;;9.33;4.87;;;;;;;21.17;47.79;99245.59;20744900;28;20220;-66
2021/04/29 16:13:16;;;;;;;6.97;4.07;;;;;;;20.77;49.07;99246.19;20734402;28;20248;-67
2021/04/29 16:23:17;;;;;;;4.80;3.90;;;;;;;20.30;49.05;99236.56;20741771;28;20773;-64
2021/04/29 16:33:19;;;;;;;4.10;3.80;;;;;;;19.80;49.14;99226.47;20757391;28;20280;-66
2021/04/29 16:43:19;;;;;;;4.20;3.80;;;;;;;19.47;49.60;99227.72;20735311;28;20228;-65
2021/04/29 16:53:20;;;;;;;4.83;4.43;;;;;;;19.28;50.48;99234.50;20740559;28;20347;-64
2021/04/29 17:03:20;;;;;;;5.90;4.20;;;;;;;18.92;51.51;99228.81;20723724;28;20228;-69
2021/04/29 17:13:21;;;;;;;5.23;4.17;;;;;;;18.45;52.49;99232.41;20762514;28;20235;-65
2021/04/29 17:23:21;;;;;;;5.50;4.10;;;;;;;18.17;53.36;99240.09;20722815;28;20235;-66
2021/04/29 17:33:22;;;;;;;5.43;4.93;;;;;;;17.97;54.97;99250.47;20740184;28;20238;-64
2021/04/29 17:43:22;;;;;;;7.43;5.33;;;;;;;17.70;55.79;99258.91;20747443;28;20248;-69
2021/04/29 17:53:23;;;;;;;8.20;6.07;;;;;;;17.42;56.45;99260.22;20735928;28;20334;-63
2021/04/29 18:03:23;;;;;;;10.57;7.43;;;;;;;17.21;56.78;99260.72;20750308;28;21069;-70
2021/04/29 18:13:24;;;;;;;5.77;4.77;;;;;;;16.86;56.77;99234.91;20749989;28;20297;-67
2021/04/29 18:23:26;;;;;;;7.70;6.50;;;;;;;16.38;57.65;99249.84;20730188;28;20243;-65
2021/04/29 18:33:26;;;;;;;7.60;6.30;;;;;;;15.94;59.09;99261.72;20718473;28;20303;-63
2021/04/29 18:43:27;;;;;;;11.50;7.60;;;;;;;15.73;61.03;99275.53;20734761;28;20963;-67
2021/04/29 18:53:27;;;;;;;9.87;8.63;;;;;;;15.50;63.11;99272.47;20733507;28;21172;-63
2021/04/29 19:03:28;;;;;;;11.17;9.83;;;;;;;15.52;65.16;99285.75;20756942;28;20491;-70
2021/04/29 19:23:24;;;;;;;13.20;10.60;;;;;;;15.53;67.74;99288.28;20869432;27;860930;-63
2021/04/29 19:33:25;;;;;;;15.87;11.17;;;;;;;15.59;68.29;99287.69;20883707;28;20242;-65
2021/04/29 19:43:26;;;;;;;16.87;13.87;;;;;;;15.60;69.22;99308.19;20943498;28;20229;-68
2021/04/29 19:53:26;;;;;;;16.02;13.25;;;;;;;15.57;69.57;99308.53;20940830;28;20379;-64
2021/04/29 20:03:27;;;;;;;13.83;11.43;;;;;;;15.42;70.13;99313.56;20989910;28;20218;-66
2021/04/29 20:13:27;;;;;;;13.50;12.03;;;;;;;15.31;71.18;99313.81;21023175;28;20259;-68
2021/04/29 20:23:28;;;;;;;13.57;11.32;;;;;;;15.09;72.17;99314.25;21028657;28;20957;-70
2021/04/29 20:33:29;;;;;;;14.00;11.53;;;;;;;15.00;73.01;99325.88;20903733;28;20366;-67
2021/04/29 20:43:30;;;;;;;14.00;11.30;;;;;;;14.90;73.47;99320.56;20878792;28;20224;-66
2021/04/29 20:53:31;;;;;;;11.37;10.17;;;;;;;14.56;74.55;99325.69;20892220;28;20224;-67
2021/04/29 21:03:31;;;;;;;14.77;11.57;;;;;;;14.07;75.33;99322.31;20882331;28;20770;-67
2021/04/29 21:13:32;;;;;;;11.43;10.07;;;;;;;13.68;77.08;99320.66;20883384;28;20219;-67
2021/04/29 21:23:33;;;;;;;13.00;10.23;;;;;;;13.40;78.90;99329.59;20888602;28;20366;-68
2021/04/29 21:33:33;;;;;;;11.77;9.33;;;;;;;13.24;80.56;99332.81;20928217;28;20455;-66
2021/04/29 21:43:34;;;;;;;9.80;8.77;;;;;;;13.21;80.51;99317.84;20892520;28;20588;-68
2021/04/29 21:53:34;;;;;;;12.18;9.75;;;;;;;13.37;81.11;99337.91;20886384;28;20236;-67
2021/04/29 22:03:37;;;;;;;16.13;12.07;;;;;;;13.43;82.05;99334.63;20889886;28;20264;-64
2021/04/29 22:13:37;;;;;;;13.17;11.30;;;;;;;13.42;82.25;99316.88;20872107;28;20255;-66
2021/04/29 22:23:39;;;;;;;13.67;9.97;;;;;;;13.60;82.81;99309.81;20886529;28;20237;-65
2021/04/29 22:33:40;;;;;;;12.17;9.77;;;;;;;13.74;83.02;99317.44;20956991;28;20782;-67
2021/04/29 22:43:40;;;;;;;11.00;9.80;;;;;;;13.74;82.97;99304.03;20962053;28;20318;-64
2021/04/29 22:53:41;;;;;;;10.00;8.63;;;;;;;13.86;84.16;99351.16;20966739;28;20229;-69
2021/04/29 23:03:41;;;;;;;11.30;9.60;;;;;;;13.99;84.60;99330.25;20951941;28;21232;-65
2021/04/29 23:13:43;;;;;;;12.20;9.43;;;;;;;14.06;86.22;99325.13;20967753;28;20234;-65
2021/04/29 23:23:43;;;;;;;12.33;10.17;;;;;;;14.17;85.52;99343.72;20950386;28;20572;-65
2021/04/29 23:33:44;;;;;;;15.00;12.00;;;;;;;14.12;86.44;99366.66;20966963;28;20221;-63
2021/04/29 23:43:44;;;;;;;17.67;13.23;;;;;;;14.00;86.88;99398.16;20948791;28;20224;-64
2021/04/29 23:53:44;;;;;;;10.17;8.87;;;;;;;13.82;87.78;99397.16;20963186;28;20232;-63
